Tomkins Cove, New York
Current Conditions -  °F | °C
As of 2:45 AM on Sunday 23 Nov 2014 (Local Time) from KSWF Reporting Station
Broken Clouds Broken Clouds  
Wind Chill: 35°   Ceiling: 10000
Heat Index: 39°   Visibility: 10mi
Dew Point: 21°   Wind: 6mph
Humidity: 49%   Direction: 220°SW
Pressure: 30.15"   Gusts: NA
Location:  41.26°N, 73.98°W
Report Text: KSWF 230745Z 22005KT 10SM BKN100 04/M06 A3015
Loading
Personal Weather Stations






























Interactive Weather Map New forecast layout! Learn more

10-Day Weather Forecast

Advertisements
Track Severe Weather on mobile